createdAt,value
2019-03-23T00:00:37.811Z,126.55
2019-03-23T00:03:07.366Z,125.42
2019-03-23T00:05:36.765Z,117.22
2019-03-23T00:08:06.167Z,126.02
2019-03-23T00:10:36.629Z,120.00
2019-03-23T00:13:06.115Z,119.45
2019-03-23T00:15:35.654Z,115.22
2019-03-23T00:18:05.150Z,125.00
2019-03-23T00:20:42.982Z,125.07
2019-03-23T00:23:12.387Z,118.33
2019-03-23T00:25:41.856Z,118.22
2019-03-23T00:28:11.260Z,116.77
2019-03-23T00:30:40.644Z,119.42
2019-03-23T00:33:10.062Z,113.25
2019-03-23T00:35:39.452Z,109.00
2019-03-23T00:38:08.871Z,112.55
2019-03-23T00:40:55.430Z,113.40
2019-03-23T00:43:24.826Z,109.07
2019-03-23T00:45:54.349Z,110.48
2019-03-23T00:48:23.999Z,109.07
2019-03-23T00:50:53.514Z,111.45
2019-03-23T00:53:22.924Z,103.95
2019-03-23T00:55:52.334Z,107.07
2019-03-23T00:58:21.899Z,105.70
2019-03-23T01:00:51.303Z,112.40
2019-03-23T01:03:20.702Z,109.97
2019-03-23T01:05:50.472Z,110.60
2019-03-23T01:08:19.870Z,107.10
2019-03-23T01:10:49.276Z,108.60
2019-03-23T01:13:18.674Z,107.03
2019-03-23T01:15:48.206Z,107.07
2019-03-23T01:18:17.755Z,103.15
2019-03-23T01:20:49.862Z,102.75
2019-03-23T01:23:18.251Z,99.00
2019-03-23T01:25:47.671Z,104.17
2019-03-23T01:28:17.077Z,103.15
2019-03-23T01:30:46.482Z,107.45
2019-03-23T01:33:15.883Z,109.32
2019-03-23T01:35:45.291Z,110.42
2019-03-23T01:38:14.699Z,103.58
2019-03-23T01:40:44.367Z,106.45
2019-03-23T01:43:13.919Z,107.85
2019-03-23T01:45:43.321Z,102.30
2019-03-23T01:48:12.719Z,109.45
2019-03-23T01:50:42.123Z,104.78
2019-03-23T01:53:25.382Z,109.52
2019-03-23T01:55:54.811Z,104.92
2019-03-23T01:58:24.206Z,111.32
2019-03-23T02:00:53.688Z,105.80
2019-03-23T02:03:23.165Z,104.65
2019-03-23T02:05:52.547Z,108.10
2019-03-23T02:08:22.040Z,106.92
2019-03-23T02:10:51.579Z,112.10
2019-03-23T02:13:20.986Z,109.70
2019-03-23T02:15:50.451Z,103.65
2019-03-23T02:18:19.863Z,102.47
2019-03-23T02:20:50.035Z,102.60
2019-03-23T02:23:20.675Z,98.92
2019-03-23T02:25:50.068Z,101.90
2019-03-23T02:28:19.475Z,102.72
2019-03-23T02:30:48.895Z,100.27
2019-03-23T02:33:18.299Z,95.15
2019-03-23T02:35:47.717Z,98.10
2019-03-23T02:38:17.136Z,93.52
2019-03-23T02:40:46.529Z,92.15
2019-03-23T02:43:15.997Z,86.57
2019-03-23T02:45:45.411Z,88.03
2019-03-23T02:48:14.931Z,86.60
2019-03-23T02:50:44.335Z,88.55
2019-03-23T02:53:13.743Z,89.72
2019-03-23T02:55:43.155Z,81.97
2019-03-23T02:58:12.556Z,86.65
2019-03-23T03:00:41.947Z,85.53
2019-03-23T03:03:11.357Z,83.97
2019-03-23T03:05:41.707Z,78.50
2019-03-23T03:08:11.197Z,81.67
2019-03-23T03:10:41.864Z,88.20
2019-03-23T03:13:11.324Z,84.52
2019-03-23T03:15:40.716Z,78.92
2019-03-23T03:18:10.362Z,83.12
2019-03-23T03:20:39.862Z,80.00
2019-03-23T03:23:09.334Z,81.85
2019-03-23T03:25:38.813Z,76.75
2019-03-23T03:28:08.208Z,80.47
2019-03-23T03:30:37.852Z,82.62
2019-03-23T03:33:08.397Z,83.27
2019-03-23T03:35:37.860Z,77.82
2019-03-23T03:38:07.268Z,71.00
2019-03-23T03:40:36.817Z,82.88
2019-03-23T03:43:06.227Z,74.58
2019-03-23T03:45:35.683Z,81.55
2019-03-23T03:48:05.063Z,72.72
2019-03-23T03:50:34.480Z,74.35
2019-03-23T03:53:04.007Z,79.45
2019-03-23T03:55:33.407Z,83.55
2019-03-23T03:58:06.660Z,71.90
2019-03-23T04:00:36.906Z,72.53
2019-03-23T04:03:06.367Z,83.30
2019-03-23T04:05:35.763Z,82.90
2019-03-23T04:08:11.789Z,77.17
2019-03-23T04:10:37.323Z,72.40
2019-03-23T04:13:06.768Z,77.85
2019-03-23T04:15:36.149Z,76.20
2019-03-23T04:18:05.544Z,74.95
2019-03-23T04:20:34.998Z,80.90
2019-03-23T04:23:04.380Z,86.67
2019-03-23T04:25:33.787Z,80.20
2019-03-23T04:28:03.249Z,85.60
2019-03-23T04:30:32.697Z,79.77
2019-03-23T04:33:02.289Z,82.55
2019-03-23T04:35:31.767Z,79.55
2019-03-23T04:38:01.235Z,80.03
2019-03-23T04:40:30.695Z,86.02
2019-03-23T04:43:00.086Z,84.85
2019-03-23T04:45:29.484Z,78.90
2019-03-23T04:47:58.879Z,82.57
2019-03-23T04:50:28.270Z,75.70
2019-03-23T04:52:57.662Z,73.85
2019-03-23T04:55:27.069Z,74.40
2019-03-23T04:57:57.538Z,73.10
2019-03-23T05:00:26.934Z,71.47
2019-03-23T05:02:56.334Z,76.07
2019-03-23T05:05:25.725Z,76.35
2019-03-23T05:07:55.130Z,80.72
2019-03-23T05:10:24.527Z,77.50
2019-03-23T05:12:53.926Z,83.45
2019-03-23T05:15:23.338Z,73.95
2019-03-23T05:17:52.745Z,80.35
2019-03-23T05:20:27.474Z,68.17
2019-03-23T05:22:57.151Z,74.37
2019-03-23T05:25:28.678Z,75.30
2019-03-23T05:28:11.869Z,74.12
2019-03-23T05:30:41.287Z,79.95
2019-03-23T05:33:10.935Z,74.75
2019-03-23T05:35:40.410Z,79.67
2019-03-23T05:38:09.801Z,76.55
2019-03-23T05:40:39.247Z,80.95
2019-03-23T05:43:08.662Z,79.80
2019-03-23T05:45:38.069Z,81.57
2019-03-23T05:48:07.461Z,85.42
2019-03-23T05:50:36.874Z,85.25
2019-03-23T05:53:06.343Z,94.15
2019-03-23T05:55:35.741Z,78.40
2019-03-23T05:58:05.204Z,90.25
2019-03-23T06:00:34.604Z,88.25
2019-03-23T06:03:04.024Z,92.67
2019-03-23T06:05:33.492Z,92.97
2019-03-23T06:08:02.886Z,91.87
2019-03-23T06:10:32.283Z,84.25
2019-03-23T06:13:01.671Z,90.38
2019-03-23T06:15:31.126Z,94.50
2019-03-23T06:18:00.529Z,88.52
2019-03-23T06:20:29.918Z,95.67
2019-03-23T06:22:59.325Z,90.15
2019-03-23T06:25:28.740Z,101.12
2019-03-23T06:27:58.206Z,107.27
2019-03-23T06:30:27.590Z,94.58
2019-03-23T06:32:59.272Z,94.85
2019-03-23T06:35:28.075Z,105.97
2019-03-23T06:37:57.478Z,96.63
2019-03-23T06:40:26.866Z,107.70
2019-03-23T06:43:10.018Z,99.42
2019-03-23T06:45:39.410Z,98.22
2019-03-23T06:48:08.819Z,100.53
2019-03-23T06:50:38.222Z,98.42
2019-03-23T06:53:07.632Z,98.05
2019-03-23T06:55:37.029Z,97.70
2019-03-23T06:58:06.453Z,95.95
2019-03-23T07:00:35.908Z,103.22
2019-03-23T07:03:05.286Z,99.97
2019-03-23T07:05:34.726Z,105.47
2019-03-23T07:08:04.130Z,103.67
2019-03-23T07:10:33.520Z,101.18
2019-03-23T07:13:02.934Z,109.95
2019-03-23T07:15:32.334Z,99.40
2019-03-23T07:18:02.803Z,99.65
2019-03-23T07:20:32.627Z,109.03
2019-03-23T07:23:02.156Z,96.35
2019-03-23T07:25:31.544Z,96.72
2019-03-23T07:28:01.022Z,99.10
2019-03-23T07:30:30.424Z,97.27
2019-03-23T07:32:59.930Z,92.12
2019-03-23T07:35:29.415Z,101.53
2019-03-23T07:37:58.829Z,100.30
2019-03-23T07:40:28.234Z,95.12
2019-03-23T07:42:57.642Z,89.15
2019-03-23T07:45:27.046Z,93.95
2019-03-23T07:47:56.516Z,93.92
2019-03-23T07:50:25.923Z,90.83
2019-03-23T07:52:55.322Z,90.28
2019-03-23T07:55:24.726Z,88.90
2019-03-23T07:57:54.132Z,86.40
2019-03-23T08:00:23.612Z,83.47
2019-03-23T08:02:53.019Z,82.80
2019-03-23T08:05:36.224Z,84.32
2019-03-23T08:08:05.690Z,83.50
2019-03-23T08:10:35.174Z,84.52
2019-03-23T08:13:04.912Z,78.57
2019-03-23T08:15:35.087Z,79.27
2019-03-23T08:18:18.245Z,83.12
2019-03-23T08:20:47.712Z,86.17
2019-03-23T08:23:17.107Z,86.32
2019-03-23T08:25:46.504Z,79.17
2019-03-23T08:28:15.915Z,80.57
2019-03-23T08:30:45.403Z,77.40
2019-03-23T08:33:14.823Z,75.12
2019-03-23T08:35:44.238Z,80.60
2019-03-23T08:38:13.638Z,74.77
2019-03-23T08:40:43.036Z,73.35
2019-03-23T08:43:12.433Z,71.80
2019-03-23T08:45:41.831Z,73.10
2019-03-23T08:48:11.372Z,79.35
2019-03-23T08:50:40.775Z,78.45
2019-03-23T08:53:10.158Z,76.02
2019-03-23T08:55:39.579Z,70.30
2019-03-23T08:58:08.974Z,74.00
2019-03-23T09:00:38.424Z,67.22
2019-03-23T09:03:07.930Z,73.22
2019-03-23T09:05:37.345Z,69.67
2019-03-23T09:08:07.980Z,69.15
2019-03-23T09:10:37.392Z,66.30
2019-03-23T09:13:06.775Z,64.15
2019-03-23T09:15:36.189Z,57.83
2019-03-23T09:18:05.576Z,63.28
2019-03-23T09:20:34.996Z,63.70
2019-03-23T09:23:04.400Z,66.85
2019-03-23T09:25:33.810Z,61.88
2019-03-23T09:28:03.220Z,54.83
2019-03-23T09:30:32.767Z,64.03
2019-03-23T09:33:02.184Z,65.17
2019-03-23T09:35:31.686Z,58.83
2019-03-23T09:38:01.182Z,65.42
2019-03-23T09:40:30.583Z,56.65
2019-03-23T09:42:59.992Z,55.58
2019-03-23T09:45:29.383Z,63.98
2019-03-23T09:47:58.805Z,59.65
2019-03-23T09:50:28.255Z,59.13
2019-03-23T09:52:57.747Z,55.38
2019-03-23T09:55:28.659Z,53.42
2019-03-23T09:57:59.285Z,58.65
2019-03-23T10:00:28.677Z,59.38
2019-03-23T10:02:58.192Z,60.73
2019-03-23T10:05:27.595Z,49.50
2019-03-23T10:07:56.977Z,51.55
2019-03-23T10:10:26.485Z,67.82
2019-03-23T10:12:55.888Z,157.18
2019-03-23T10:15:25.383Z,90.55
2019-03-23T10:17:54.819Z,83.07
2019-03-23T10:20:24.227Z,74.35
2019-03-23T10:22:53.725Z,81.32
2019-03-23T10:25:23.128Z,72.17
2019-03-23T10:27:52.527Z,69.20
2019-03-23T10:30:21.940Z,67.15
2019-03-23T10:32:51.403Z,68.50
2019-03-23T10:35:20.799Z,67.67
2019-03-23T10:37:50.183Z,63.70
2019-03-23T10:40:19.605Z,65.55
2019-03-23T10:42:48.997Z,64.00
2019-03-23T10:45:18.516Z,61.02
2019-03-23T10:47:47.965Z,62.93
2019-03-23T10:50:17.577Z,66.55
2019-03-23T10:52:47.690Z,62.23
2019-03-23T10:55:17.087Z,57.88
2019-03-23T10:57:46.504Z,66.50
2019-03-23T11:00:16.376Z,67.85
2019-03-23T11:02:45.832Z,62.53
2019-03-23T11:05:15.252Z,58.78
2019-03-23T11:07:44.703Z,62.40
2019-03-23T11:10:14.623Z,67.05
2019-03-23T11:12:44.025Z,68.62
2019-03-23T11:15:13.591Z,57.13
2019-03-23T11:17:43.063Z,67.95
2019-03-23T11:20:13.500Z,84.87
2019-03-23T11:22:42.900Z,71.00
2019-03-23T11:25:12.839Z,64.03
2019-03-23T11:27:42.287Z,62.50
2019-03-23T11:30:17.900Z,63.90
2019-03-23T11:32:47.283Z,74.90
2019-03-23T11:35:36.028Z,63.55
2019-03-23T11:38:05.516Z,65.85
2019-03-23T11:40:35.099Z,64.82
2019-03-23T11:43:04.564Z,61.40
2019-03-23T11:45:33.952Z,59.03
2019-03-23T11:48:03.348Z,65.92
2019-03-23T11:50:32.739Z,65.83
2019-03-23T11:53:02.153Z,69.12
2019-03-23T11:55:31.608Z,67.40
2019-03-23T11:58:01.067Z,71.47
2019-03-23T12:00:30.551Z,63.98
2019-03-23T12:02:59.937Z,73.47
2019-03-23T12:05:29.317Z,79.45
2019-03-23T12:07:58.716Z,78.80
2019-03-23T12:10:28.099Z,66.82
2019-03-23T12:12:57.487Z,64.27
2019-03-23T12:15:26.883Z,66.53
2019-03-23T12:17:56.435Z,67.50
2019-03-23T12:20:25.908Z,70.92
2019-03-23T12:22:55.299Z,62.90
2019-03-23T12:25:24.730Z,60.70
2019-03-23T12:27:54.614Z,62.13
2019-03-23T12:30:24.019Z,68.02
2019-03-23T12:32:53.496Z,66.02
2019-03-23T12:35:22.924Z,67.03
2019-03-23T12:37:52.499Z,62.33
2019-03-23T12:40:21.899Z,61.28
2019-03-23T12:42:51.297Z,64.87
2019-03-23T12:45:24.169Z,67.17
2019-03-23T12:47:53.551Z,66.17
2019-03-23T12:50:22.959Z,58.65
2019-03-23T12:52:52.428Z,71.37
2019-03-23T12:55:22.351Z,65.30
2019-03-23T12:57:51.758Z,68.95
2019-03-23T13:00:21.221Z,68.17
2019-03-23T13:02:50.627Z,63.75
2019-03-23T13:05:20.026Z,67.30
2019-03-23T13:07:49.475Z,67.72
2019-03-23T13:10:18.983Z,65.72
2019-03-23T13:12:48.379Z,71.33
2019-03-23T13:15:17.859Z,62.30
2019-03-23T13:17:47.254Z,65.00
2019-03-23T13:20:16.910Z,61.35
2019-03-23T13:22:46.462Z,57.62
2019-03-23T13:25:15.867Z,63.23
2019-03-23T13:27:45.323Z,64.87
2019-03-23T13:30:17.030Z,57.83
2019-03-23T13:32:46.431Z,64.60
2019-03-23T13:35:15.832Z,62.25
2019-03-23T13:37:45.351Z,59.53
2019-03-23T13:40:15.172Z,63.45
2019-03-23T13:42:44.555Z,56.90
2019-03-23T13:45:15.725Z,62.03
2019-03-23T13:47:45.114Z,58.98
2019-03-23T13:50:17.643Z,57.13
2019-03-23T13:52:47.051Z,83.90
2019-03-23T13:55:30.603Z,86.82
2019-03-23T13:58:08.614Z,68.70
2019-03-23T14:00:39.538Z,66.22
2019-03-23T14:03:09.511Z,61.90
2019-03-23T14:05:38.979Z,60.63
2019-03-23T14:08:08.383Z,58.23
2019-03-23T14:10:37.950Z,64.87
2019-03-23T14:13:07.358Z,56.60
2019-03-23T14:15:36.830Z,64.25
2019-03-23T14:18:06.239Z,59.27
2019-03-23T14:20:35.645Z,57.33
2019-03-23T14:23:05.043Z,64.10
2019-03-23T14:25:34.452Z,58.28
2019-03-23T14:28:04.035Z,53.55
2019-03-23T14:30:33.420Z,61.92
2019-03-23T14:33:02.903Z,58.60
2019-03-23T14:35:32.300Z,56.15
2019-03-23T14:38:01.751Z,58.25
2019-03-23T14:40:31.149Z,57.43
2019-03-23T14:43:00.603Z,56.50
2019-03-23T14:45:30.008Z,59.33
2019-03-23T14:47:59.471Z,54.67
2019-03-23T14:50:29.156Z,51.48
2019-03-23T14:52:58.559Z,52.10
2019-03-23T14:55:27.965Z,53.45
2019-03-23T14:57:57.345Z,55.48
2019-03-23T15:00:31.247Z,51.42
2019-03-23T15:03:00.671Z,55.45
2019-03-23T15:05:30.218Z,53.20
2019-03-23T15:08:13.248Z,53.80
2019-03-23T15:10:42.716Z,51.45
2019-03-23T15:13:12.123Z,49.88
2019-03-23T15:15:41.520Z,46.88
2019-03-23T15:18:10.930Z,48.20
2019-03-23T15:20:40.328Z,49.67
2019-03-23T15:23:09.791Z,49.23
2019-03-23T15:25:39.585Z,49.85
2019-03-23T15:28:09.214Z,52.80
2019-03-23T15:30:38.602Z,47.60
2019-03-23T15:33:08.030Z,51.05
2019-03-23T15:35:37.419Z,50.05
2019-03-23T15:38:06.821Z,51.10
2019-03-23T15:40:36.200Z,51.28
2019-03-23T15:43:05.607Z,49.60
2019-03-23T15:45:35.008Z,50.35
2019-03-23T15:48:04.411Z,54.15
2019-03-23T15:50:33.804Z,47.90
2019-03-23T15:53:03.191Z,48.80
2019-03-23T15:55:32.617Z,46.63
2019-03-23T15:58:02.002Z,50.52
2019-03-23T16:00:31.787Z,49.45
2019-03-23T16:03:20.503Z,45.10
2019-03-23T16:05:49.911Z,44.20
2019-03-23T16:08:19.298Z,48.68
2019-03-23T16:10:48.704Z,45.60
2019-03-23T16:13:18.167Z,48.78
2019-03-23T16:15:47.559Z,65.37
2019-03-23T16:18:16.946Z,47.13
2019-03-23T16:20:46.347Z,50.95
2019-03-23T16:23:15.882Z,44.63
2019-03-23T16:25:45.270Z,46.50
2019-03-23T16:28:14.751Z,48.33
2019-03-23T16:30:44.149Z,46.25
2019-03-23T16:33:13.548Z,47.25
2019-03-23T16:35:43.041Z,49.45
2019-03-23T16:38:12.451Z,45.17
2019-03-23T16:40:41.849Z,47.45
2019-03-23T16:43:11.251Z,45.85
2019-03-23T16:45:40.644Z,46.75
2019-03-23T16:48:10.042Z,43.25
2019-03-23T16:50:39.431Z,39.35
2019-03-23T16:53:08.829Z,40.67
2019-03-23T16:55:38.222Z,40.00
2019-03-23T16:58:15.702Z,38.33
2019-03-23T17:00:39.046Z,41.88
2019-03-23T17:03:08.599Z,42.70
2019-03-23T17:05:37.990Z,40.63
2019-03-23T17:08:08.319Z,40.12
2019-03-23T17:10:37.720Z,35.15
2019-03-23T17:13:07.233Z,36.98
2019-03-23T17:15:36.626Z,34.23
2019-03-23T17:18:06.371Z,35.80
2019-03-23T17:20:35.822Z,37.95
2019-03-23T17:23:05.226Z,38.65
2019-03-23T17:25:34.884Z,40.45
2019-03-23T17:28:04.427Z,37.42
2019-03-23T17:30:33.837Z,39.35
2019-03-23T17:33:03.251Z,34.65
2019-03-23T17:35:32.712Z,32.15
2019-03-23T17:38:03.097Z,32.88
2019-03-23T17:40:32.554Z,38.10
2019-03-23T17:43:05.879Z,33.13
2019-03-23T17:45:33.044Z,33.98
2019-03-23T17:48:02.459Z,34.05
2019-03-23T17:50:31.857Z,30.65
2019-03-23T17:53:01.433Z,32.78
2019-03-23T17:55:31.000Z,37.10
2019-03-23T17:58:00.403Z,33.02
2019-03-23T18:00:30.672Z,33.48
2019-03-23T18:03:00.782Z,30.85
2019-03-23T18:05:30.354Z,31.10
2019-03-23T18:07:59.827Z,35.15
2019-03-23T18:10:29.510Z,29.60
2019-03-23T18:12:58.911Z,26.20
2019-03-23T18:15:28.483Z,25.80
2019-03-23T18:17:57.881Z,28.67
2019-03-23T18:20:27.282Z,28.95
2019-03-23T18:22:56.743Z,25.92
2019-03-23T18:25:26.183Z,28.87
2019-03-23T18:27:56.246Z,29.30
2019-03-23T18:30:37.455Z,23.42
2019-03-23T18:33:07.270Z,22.58
2019-03-23T18:35:36.815Z,24.57
2019-03-23T18:38:06.397Z,26.90
2019-03-23T18:40:36.359Z,24.32
2019-03-23T18:43:06.213Z,25.45
2019-03-23T18:45:36.349Z,28.47
2019-03-23T18:48:06.019Z,26.20
2019-03-23T18:50:36.471Z,23.92
2019-03-23T18:53:06.018Z,28.17
2019-03-23T18:55:35.554Z,27.40
2019-03-23T18:58:05.130Z,27.45
2019-03-23T19:00:39.753Z,20.72
2019-03-23T19:03:11.233Z,21.37
2019-03-23T19:05:54.551Z,24.45
2019-03-23T19:08:25.046Z,22.95
2019-03-23T19:10:54.442Z,22.52
2019-03-23T19:13:23.847Z,22.13
2019-03-23T19:15:53.247Z,24.57
2019-03-23T19:18:22.647Z,23.95
2019-03-23T19:20:52.046Z,18.75
2019-03-23T19:23:21.449Z,21.93
2019-03-23T19:25:50.854Z,24.40
2019-03-23T19:28:20.319Z,19.15
2019-03-23T19:30:49.714Z,19.73
2019-03-23T19:33:19.114Z,20.90
2019-03-23T19:35:48.526Z,19.73
2019-03-23T19:38:18.240Z,17.75
2019-03-23T19:40:48.080Z,18.45
2019-03-23T19:43:17.500Z,20.17
2019-03-23T19:45:46.934Z,21.57
2019-03-23T19:48:16.332Z,20.60
2019-03-23T19:50:45.733Z,23.10
2019-03-23T19:53:15.128Z,28.30
2019-03-23T19:55:44.532Z,25.75
2019-03-23T19:58:13.926Z,28.12
2019-03-23T20:00:43.411Z,23.70
2019-03-23T20:03:12.874Z,21.15
2019-03-23T20:05:42.338Z,27.67
2019-03-23T20:08:11.722Z,24.67
2019-03-23T20:10:41.194Z,22.87
2019-03-23T20:13:10.583Z,22.80
2019-03-23T20:15:39.978Z,23.95
2019-03-23T20:18:09.533Z,24.65
2019-03-23T20:20:38.963Z,25.37
2019-03-23T20:23:08.416Z,24.80
2019-03-23T20:25:39.691Z,28.57
2019-03-23T20:28:08.978Z,29.52
2019-03-23T20:30:39.447Z,28.42
2019-03-23T20:33:15.306Z,30.15
2019-03-23T20:35:39.914Z,27.55
2019-03-23T20:38:09.327Z,26.85
2019-03-23T20:40:38.784Z,26.23
2019-03-23T20:43:08.214Z,25.00
2019-03-23T20:45:37.627Z,26.80
2019-03-23T20:48:07.046Z,28.12
2019-03-23T20:50:38.747Z,28.57
2019-03-23T20:53:08.549Z,27.48
2019-03-23T20:55:38.061Z,23.65
2019-03-23T20:58:07.435Z,35.03
2019-03-23T21:00:37.120Z,27.58
2019-03-23T21:03:06.568Z,26.35
2019-03-23T21:05:37.019Z,29.55
2019-03-23T21:08:06.426Z,27.67
2019-03-23T21:10:35.829Z,24.98
2019-03-23T21:13:05.252Z,32.08
2019-03-23T21:15:34.649Z,39.08
2019-03-23T21:18:04.057Z,25.97
2019-03-23T21:20:33.621Z,20.20
2019-03-23T21:23:03.009Z,31.07
2019-03-23T21:25:32.403Z,22.13
2019-03-23T21:28:01.815Z,22.80
2019-03-23T21:30:31.603Z,19.57
2019-03-23T21:33:00.987Z,23.77
2019-03-23T21:35:30.392Z,23.07
2019-03-23T21:37:59.858Z,21.62
2019-03-23T21:40:29.255Z,20.55
2019-03-23T21:42:58.867Z,19.32
2019-03-23T21:45:28.267Z,16.77
2019-03-23T21:47:57.736Z,23.38
2019-03-23T21:50:27.196Z,18.10
2019-03-23T21:52:56.590Z,19.75
2019-03-23T21:55:25.972Z,17.92
2019-03-23T21:57:55.436Z,22.17
2019-03-23T22:00:33.057Z,18.05
2019-03-23T22:03:02.533Z,13.90
2019-03-23T22:05:32.150Z,17.07
2019-03-23T22:08:01.543Z,16.32
2019-03-23T22:10:30.922Z,18.02
2019-03-23T22:13:00.387Z,13.95
2019-03-23T22:15:31.611Z,17.17
2019-03-23T22:18:15.395Z,20.37
2019-03-23T22:20:44.799Z,14.25
2019-03-23T22:23:14.185Z,14.50
2019-03-23T22:25:43.583Z,12.58
2019-03-23T22:28:12.966Z,13.10
2019-03-23T22:30:42.531Z,10.18
2019-03-23T22:33:11.911Z,13.25
2019-03-23T22:35:41.315Z,12.10
2019-03-23T22:38:10.682Z,13.98
2019-03-23T22:40:41.142Z,10.70
2019-03-23T22:43:10.534Z,9.43
2019-03-23T22:45:39.985Z,12.10
2019-03-23T22:48:09.393Z,10.45
2019-03-23T22:50:38.840Z,12.82
2019-03-23T22:53:08.245Z,8.23
2019-03-23T22:55:39.406Z,13.28
2019-03-23T22:58:08.934Z,14.83
2019-03-23T23:00:42.294Z,22.00
2019-03-23T23:03:12.398Z,19.77
2019-03-23T23:05:42.956Z,16.37
2019-03-23T23:08:12.489Z,12.95
2019-03-23T23:10:41.899Z,17.52
2019-03-23T23:13:11.853Z,14.00
2019-03-23T23:15:41.244Z,11.00
2019-03-23T23:18:10.636Z,12.53
2019-03-23T23:20:40.031Z,15.53
2019-03-23T23:23:09.580Z,9.75
2019-03-23T23:25:38.969Z,12.78
2019-03-23T23:28:08.482Z,15.60
2019-03-23T23:30:37.884Z,16.02
2019-03-23T23:33:07.359Z,20.17
2019-03-23T23:35:36.755Z,8.95
2019-03-23T23:38:06.219Z,11.95
2019-03-23T23:40:35.666Z,11.43
2019-03-23T23:43:05.134Z,10.68
2019-03-23T23:45:34.577Z,18.37
2019-03-23T23:48:03.988Z,19.17
2019-03-23T23:50:33.450Z,13.45
2019-03-23T23:53:02.903Z,17.50
2019-03-23T23:55:46.187Z,17.05
2019-03-23T23:58:15.578Z,14.70
